Snow/Ice From: 22-01-2018 05:04 Until: 12:00 warning for: Snow/Ice Level: Orange info button


Ulpukkaniemi more information Ulpukkaniemi


Varoitus Lumi/Jää more information rain snow radar


Yksityisiä sääasemia lähellä:

Template documentation
and downloads

And another site


Löydät sääaseman tiedot myös:

European Weather Network



Säätiedot lähimmiltä METAR asemilta

   
EBAW - Antwerp
Päivitetty: 22-01-2018 07:50
Enimmäkseen pilvistä  
Enimmäkseen pilvistä  
   Tuuli: Länsi 4.1 m/s
Tuuli: Länsi 4.1 m/s
Lämpötila: 9°C
Tuulen hyytävyys: 7°C
Kastepiste: 8°C
Kosteus: 94%
Ilmanpaine: 1006 hPa
Pilvisyys: Enimmäkseen pilvistä
Näkyvyys: 7 km
Pilvitiedot: Vähäistä pilvisyyttä 700 ft,
Enimmäkseen pilvistä 4700 ft
EBAW 220550Z 27008KT 7000 FEW007 BKN047 09/08 Q1006 NOSIG
EBLG - Liège
Päivitetty: 22-01-2018 07:50
Heikkoa tihkusadetta, Enimmäkseen pilvistä  
Heikkoa tihkusadetta, Enimmäkseen pilvistä  
   Tuuli: Länsi 4.1 m/s
Tuuli: Länsi 4.1 m/s
Lämpötila: 8°C
Tuulen hyytävyys: 6°C
Kastepiste: 7°C
Kosteus: 93%
Ilmanpaine: 1007 hPa
Pilvisyys: Enimmäkseen pilvistä
Näkyvyys: 3 km
Pilvitiedot: Enimmäkseen pilvistä 100 ft,
Enimmäkseen pilvistä 300 ft
EBLG 220550Z 26008KT 3300 -DZ BKN001 BKN003 08/07 Q1007 TEMPO 1500 DZ
EBCV - Mons/Bergen
Päivitetty: 22-01-2018 07:25
Pilvistä  
Pilvistä  
   Tuuli: Länsi 4.1 m/s
Tuuli: Länsi 4.1 m/s
Lämpötila: 10°C
Tuulen hyytävyys: 8°C
Kastepiste: 9°C
Kosteus: 94%
Ilmanpaine: 1007 hPa
Pilvisyys: Pilvistä
Näkyvyys: Enemmän kuin 10 km
Pilvitiedot: Pilvistä 800 ft
EBCV 220525Z AUTO 26008KT 9999 OVC008/// 10/09 Q1007 GRN
EHBK - Maastricht
Päivitetty: 22-01-2018 07:55
Sumua, Pilvistä  
Sumua, Pilvistä  
   Tuuli: Länsilounas 4.6 m/s
Tuuli: Länsilounas 4.6 m/s
Lämpötila: 8°C
Tuulen hyytävyys: 5°C
Kastepiste: 8°C
Kosteus: 100%
Ilmanpaine: 1006 hPa
Pilvisyys: Pilvistä
Näkyvyys: 4 km
Pilvitiedot: Enimmäkseen pilvistä 100 ft,
Pilvistä 200 ft
EHBK 220555Z AUTO 24009KT 210V270 3800 BR BKN001 OVC002 08/08 Q1006 TEMPO 2000 -DZ BECMG BKN003
ELLX - Luxemburg
Päivitetty: 22-01-2018 07:50
Sumua, Enimmäkseen pilvistä  
Sumua, Enimmäkseen pilvistä  
   Tuuli: Länsilounas 4.1 m/s
Tuuli: Länsilounas 4.1 m/s
Lämpötila: 4°C
Tuulen hyytävyys: 1°C
Kastepiste: 4°C
Kosteus: 100%
Ilmanpaine: 1007 hPa
Pilvisyys: Enimmäkseen pilvistä
Näkyvyys: 0 km
Pilvitiedot: Enimmäkseen pilvistä
ELLX 220550Z 25008KT 0300 R24/0750V1100U FG BKN000 04/04 Q1007 NOSIG
EBOS - Oostende
Päivitetty: 22-01-2018 07:50
Enimmäkseen pilvistä  
Enimmäkseen pilvistä  
   Tuuli: Länsilounas 5.7 m/s
Tuuli: Länsilounas 5.7 m/s
Lämpötila: 8°C
Tuulen hyytävyys: 5°C
Kastepiste: 7°C
Kosteus: 93%
Ilmanpaine: 1006 hPa
Pilvisyys: Enimmäkseen pilvistä
Näkyvyys: Enemmän kuin 10 km
Pilvitiedot: Vähäistä pilvisyyttä 1800 ft,
Enimmäkseen pilvistä 4300 ft
EBOS 220550Z 25011KT 9999 FEW018 BKN043 08/07 Q1006 NOSIG

Alkuperäinen skripti  Saratoga-weather.org Sovitettu myös templatelle  Weerstation Leuven

Laitteet joita käytämme:

Sääasema
WS3083

Sääasemaohjelma
Cumulus

Sääaseman tietokone
RaspberryPI

Palveluntarjoaja
Suncomet

WS3083

Cumulus

RaspberryPI

Suncomet